createdAt,value
2018-05-04T00:00:46.379Z,6.84
2018-05-04T00:01:46.424Z,6.79
2018-05-04T00:02:46.373Z,6.81
2018-05-04T00:03:46.371Z,6.82
2018-05-04T00:04:46.388Z,6.8
2018-05-04T00:05:46.357Z,6.79
2018-05-04T00:06:46.329Z,6.81
2018-05-04T00:07:46.485Z,6.78
2018-05-04T00:08:46.358Z,6.78
2018-05-04T00:09:46.356Z,6.76
2018-05-04T00:10:46.355Z,6.77
2018-05-04T00:11:46.361Z,6.77
2018-05-04T00:12:46.394Z,6.76
2018-05-04T00:13:46.388Z,6.76
2018-05-04T00:14:46.364Z,6.75
2018-05-04T00:15:46.392Z,6.78
2018-05-04T00:16:46.355Z,6.76
2018-05-04T00:17:46.379Z,6.72
2018-05-04T00:18:46.372Z,6.72
2018-05-04T00:19:46.361Z,6.68
2018-05-04T00:20:46.369Z,6.7
2018-05-04T00:21:46.373Z,6.67
2018-05-04T00:22:46.393Z,6.68
2018-05-04T00:23:46.361Z,6.67
2018-05-04T00:24:46.370Z,6.69
2018-05-04T00:25:46.363Z,6.69
2018-05-04T00:26:46.398Z,6.7
2018-05-04T00:27:46.387Z,6.7
2018-05-04T00:28:46.364Z,6.66
2018-05-04T00:29:46.375Z,6.7
2018-05-04T00:30:46.345Z,6.71
2018-05-04T00:31:46.356Z,6.71
2018-05-04T00:32:46.384Z,6.65
2018-05-04T00:33:46.371Z,6.69
2018-05-04T00:34:46.478Z,6.68
2018-05-04T00:35:46.366Z,6.7
2018-05-04T00:36:46.371Z,6.71
2018-05-04T00:37:46.375Z,6.7
2018-05-04T00:38:46.407Z,6.71
2018-05-04T00:39:46.391Z,6.72
2018-05-04T00:40:46.386Z,6.71
2018-05-04T00:41:46.420Z,6.69
2018-05-04T00:42:46.372Z,6.7
2018-05-04T00:43:46.445Z,6.68
2018-05-04T00:44:46.403Z,6.71
2018-05-04T00:45:46.389Z,6.72
2018-05-04T00:46:46.380Z,6.7
2018-05-04T00:47:46.402Z,6.72
2018-05-04T00:48:46.647Z,6.69
2018-05-04T00:49:46.400Z,6.68
2018-05-04T00:50:46.387Z,6.66
2018-05-04T00:51:46.405Z,6.69
2018-05-04T00:52:46.361Z,6.7
2018-05-04T00:53:46.384Z,6.71
2018-05-04T00:54:46.397Z,6.69
2018-05-04T00:55:46.430Z,6.69
2018-05-04T00:56:46.392Z,6.69
2018-05-04T00:57:46.396Z,6.7
2018-05-04T00:58:46.385Z,6.67
2018-05-04T00:59:46.387Z,6.67
2018-05-04T01:00:46.392Z,6.65
2018-05-04T01:01:46.379Z,6.64
2018-05-04T01:02:46.376Z,6.67
2018-05-04T01:03:46.378Z,6.67
2018-05-04T01:04:46.399Z,6.64
2018-05-04T01:05:46.392Z,6.65
2018-05-04T01:06:46.387Z,6.68
2018-05-04T01:07:46.398Z,6.67
2018-05-04T01:08:46.403Z,6.68
2018-05-04T01:09:46.723Z,6.67
2018-05-04T01:10:46.365Z,6.66
2018-05-04T01:11:46.522Z,6.68
2018-05-04T01:12:46.397Z,6.68
2018-05-04T01:13:46.393Z,6.66
2018-05-04T01:14:46.454Z,6.69
2018-05-04T01:15:46.440Z,6.68
2018-05-04T01:16:46.385Z,6.69
2018-05-04T01:17:46.385Z,6.69
2018-05-04T01:18:46.391Z,6.7
2018-05-04T01:19:46.456Z,6.7
2018-05-04T01:20:46.442Z,6.71
2018-05-04T01:21:46.388Z,6.69
2018-05-04T01:22:46.395Z,6.69
2018-05-04T01:23:46.417Z,6.7
2018-05-04T01:24:46.433Z,6.7
2018-05-04T01:25:46.407Z,6.76
2018-05-04T01:26:46.412Z,6.74
2018-05-04T01:27:46.429Z,6.78
2018-05-04T01:28:46.405Z,6.75
2018-05-04T01:29:46.411Z,6.76
2018-05-04T01:30:46.406Z,6.73
2018-05-04T01:31:46.426Z,6.72
2018-05-04T01:32:46.421Z,6.73
2018-05-04T01:33:46.389Z,6.72
2018-05-04T01:34:46.393Z,6.74
2018-05-04T01:35:46.405Z,6.7
2018-05-04T01:36:46.420Z,6.66
2018-05-04T01:37:46.401Z,6.63
2018-05-04T01:38:46.412Z,6.64
2018-05-04T01:39:46.421Z,6.63
2018-05-04T01:40:46.448Z,6.64
2018-05-04T01:41:46.424Z,6.59
2018-05-04T01:42:46.395Z,6.61
2018-05-04T01:43:46.403Z,6.61
2018-05-04T01:44:46.445Z,6.62
2018-05-04T01:45:46.407Z,6.62
2018-05-04T01:46:46.747Z,6.63
2018-05-04T01:47:46.430Z,6.61
2018-05-04T01:48:46.530Z,6.61
2018-05-04T01:49:46.556Z,6.63
2018-05-04T01:50:46.418Z,6.62
2018-05-04T01:51:46.406Z,6.63
2018-05-04T01:52:46.446Z,6.62
2018-05-04T01:53:46.436Z,6.63
2018-05-04T01:54:46.427Z,6.66
2018-05-04T01:55:46.448Z,6.66
2018-05-04T01:56:46.432Z,6.63
2018-05-04T01:57:46.475Z,6.57
2018-05-04T01:58:46.434Z,6.48
2018-05-04T01:59:46.431Z,6.53
2018-05-04T02:00:46.427Z,6.48
2018-05-04T02:01:46.499Z,6.52
2018-05-04T02:02:46.512Z,6.52
2018-05-04T02:03:46.427Z,6.5
2018-05-04T02:04:46.444Z,6.46
2018-05-04T02:05:46.462Z,6.5
2018-05-04T02:06:46.413Z,6.49
2018-05-04T02:07:46.921Z,6.56
2018-05-04T02:08:46.536Z,6.5
2018-05-04T02:09:46.412Z,6.49
2018-05-04T02:10:46.418Z,6.51
2018-05-04T02:11:46.406Z,6.5
2018-05-04T02:12:46.439Z,6.51
2018-05-04T02:13:46.419Z,6.48
2018-05-04T02:14:46.425Z,6.5
2018-05-04T02:15:46.485Z,6.49
2018-05-04T02:16:46.419Z,6.49
2018-05-04T02:17:46.545Z,6.49
2018-05-04T02:18:46.425Z,6.48
2018-05-04T02:19:46.416Z,6.49
2018-05-04T02:20:46.437Z,6.46
2018-05-04T02:21:46.436Z,6.47
2018-05-04T02:22:46.437Z,6.46
2018-05-04T02:23:46.419Z,6.49
2018-05-04T02:24:46.624Z,6.45
2018-05-04T02:25:46.416Z,6.49
2018-05-04T02:26:46.421Z,6.46
2018-05-04T02:27:46.534Z,6.46
2018-05-04T02:28:46.744Z,6.43
2018-05-04T02:29:46.411Z,6.46
2018-05-04T02:30:46.400Z,6.44
2018-05-04T02:31:46.430Z,6.48
2018-05-04T02:32:46.437Z,6.46
2018-05-04T02:33:46.419Z,6.45
2018-05-04T02:34:46.451Z,6.46
2018-05-04T02:35:46.425Z,6.43
2018-05-04T02:36:46.430Z,6.45
2018-05-04T02:37:46.439Z,6.45
2018-05-04T02:38:46.433Z,6.5
2018-05-04T02:39:46.451Z,6.48
2018-05-04T02:40:46.429Z,6.54
2018-05-04T02:41:46.433Z,6.47
2018-05-04T02:42:46.453Z,6.49
2018-05-04T02:43:46.442Z,6.46
2018-05-04T02:44:46.463Z,6.46
2018-05-04T02:45:46.447Z,6.44
2018-05-04T02:46:46.775Z,6.47
2018-05-04T02:47:46.536Z,6.47
2018-05-04T02:48:46.427Z,6.48
2018-05-04T02:49:46.446Z,6.48
2018-05-04T02:50:46.428Z,6.47
2018-05-04T02:51:46.461Z,6.47
2018-05-04T02:52:46.430Z,6.47
2018-05-04T02:53:46.448Z,6.48
2018-05-04T02:54:46.483Z,6.46
2018-05-04T02:55:46.539Z,6.47
2018-05-04T02:56:46.477Z,6.45
2018-05-04T02:57:46.504Z,6.44
2018-05-04T02:58:46.456Z,6.45
2018-05-04T02:59:46.494Z,6.46
2018-05-04T03:00:46.443Z,6.46
2018-05-04T03:01:46.438Z,6.46
2018-05-04T03:02:46.465Z,6.49
2018-05-04T03:03:46.791Z,6.46
2018-05-04T03:04:46.669Z,6.47
2018-05-04T03:05:46.432Z,6.47
2018-05-04T03:06:46.463Z,6.48
2018-05-04T03:07:46.439Z,6.47
2018-05-04T03:08:46.601Z,6.47
2018-05-04T03:09:46.505Z,6.45
2018-05-04T03:10:46.569Z,6.45
2018-05-04T03:11:46.467Z,6.44
2018-05-04T03:12:46.469Z,6.44
2018-05-04T03:13:46.480Z,6.42
2018-05-04T03:14:46.459Z,6.41
2018-05-04T03:15:46.532Z,6.37
2018-05-04T03:16:46.519Z,6.41
2018-05-04T03:17:46.439Z,6.37
2018-05-04T03:18:46.442Z,6.39
2018-05-04T03:19:46.452Z,6.39
2018-05-04T03:20:46.450Z,6.4
2018-05-04T03:21:46.459Z,6.38
2018-05-04T03:22:46.505Z,6.36
2018-05-04T03:23:46.460Z,6.37
2018-05-04T03:24:46.465Z,6.39
2018-05-04T03:25:46.460Z,6.36
2018-05-04T03:26:46.614Z,6.36
2018-05-04T03:27:46.461Z,6.37
2018-05-04T03:28:46.458Z,6.36
2018-05-04T03:29:46.488Z,6.37
2018-05-04T03:30:46.482Z,6.35
2018-05-04T03:31:46.474Z,6.35
2018-05-04T03:32:46.457Z,6.34
2018-05-04T03:33:46.437Z,6.36
2018-05-04T03:34:46.453Z,6.38
2018-05-04T03:35:46.443Z,6.36
2018-05-04T03:36:46.459Z,6.37
2018-05-04T03:37:46.443Z,6.33
2018-05-04T03:38:46.481Z,6.36
2018-05-04T03:39:46.441Z,6.37
2018-05-04T03:40:46.450Z,6.37
2018-05-04T03:41:46.445Z,6.37
2018-05-04T03:42:46.895Z,6.4
2018-05-04T03:43:46.480Z,6.34
2018-05-04T03:44:46.451Z,6.37
2018-05-04T03:45:46.453Z,6.34
2018-05-04T03:46:46.455Z,6.38
2018-05-04T03:47:46.580Z,6.35
2018-05-04T03:48:46.457Z,6.37
2018-05-04T03:49:46.453Z,6.38
2018-05-04T03:50:46.479Z,6.38
2018-05-04T03:51:46.436Z,6.37
2018-05-04T03:52:46.526Z,6.37
2018-05-04T03:53:46.447Z,6.37
2018-05-04T03:54:46.472Z,6.37
2018-05-04T03:55:46.459Z,6.36
2018-05-04T03:56:46.496Z,6.37
2018-05-04T03:57:46.445Z,6.39
2018-05-04T03:58:46.472Z,6.39
2018-05-04T03:59:46.450Z,6.4
2018-05-04T04:00:46.472Z,6.38
2018-05-04T04:01:46.489Z,6.46
2018-05-04T04:02:46.455Z,6.41
2018-05-04T04:03:46.449Z,6.45
2018-05-04T04:04:46.579Z,6.38
2018-05-04T04:05:46.559Z,6.39
2018-05-04T04:06:46.461Z,6.41
2018-05-04T04:07:46.448Z,6.38
2018-05-04T04:08:46.495Z,6.4
2018-05-04T04:09:46.455Z,6.37
2018-05-04T04:10:46.479Z,6.42
2018-05-04T04:11:46.464Z,6.4
2018-05-04T04:12:46.496Z,6.42
2018-05-04T04:13:46.479Z,6.44
2018-05-04T04:14:46.456Z,6.47
2018-05-04T04:15:46.474Z,6.45
2018-05-04T04:16:46.459Z,6.44
2018-05-04T04:17:46.497Z,6.45
2018-05-04T04:18:46.473Z,6.5
2018-05-04T04:19:46.481Z,6.46
2018-05-04T04:20:46.519Z,6.46
2018-05-04T04:21:46.514Z,6.46
2018-05-04T04:22:46.502Z,6.36
2018-05-04T04:23:46.538Z,6.37
2018-05-04T04:24:46.502Z,6.42
2018-05-04T04:25:46.481Z,6.41
2018-05-04T04:26:46.475Z,6.38
2018-05-04T04:27:46.464Z,6.43
2018-05-04T04:28:46.469Z,6.4
2018-05-04T04:29:46.494Z,6.45
2018-05-04T04:30:46.495Z,6.43
2018-05-04T04:31:46.501Z,6.4
2018-05-04T04:32:46.519Z,6.42
2018-05-04T04:33:46.496Z,6.44
2018-05-04T04:34:46.512Z,6.46
2018-05-04T04:35:46.500Z,6.46
2018-05-04T04:36:46.571Z,6.43
2018-05-04T04:37:46.492Z,6.45
2018-05-04T04:38:46.872Z,6.43
2018-05-04T04:39:46.510Z,6.45
2018-05-04T04:40:46.497Z,6.45
2018-05-04T04:41:46.558Z,6.43
2018-05-04T04:42:46.508Z,6.4
2018-05-04T04:43:46.472Z,6.42
2018-05-04T04:44:46.462Z,6.38
2018-05-04T04:45:46.477Z,6.4
2018-05-04T04:46:46.500Z,6.41
2018-05-04T04:47:46.586Z,6.44
2018-05-04T04:48:46.503Z,6.45
2018-05-04T04:49:46.498Z,6.42
2018-05-04T04:50:46.507Z,6.44
2018-05-04T04:51:46.576Z,6.41
2018-05-04T04:52:46.654Z,6.44
2018-05-04T04:53:46.498Z,6.43
2018-05-04T04:54:46.475Z,6.41
2018-05-04T04:55:46.481Z,6.39
2018-05-04T04:56:46.513Z,6.44
2018-05-04T04:57:46.505Z,6.44
2018-05-04T04:58:46.490Z,6.44
2018-05-04T04:59:46.476Z,6.46
2018-05-04T05:00:46.502Z,6.45
2018-05-04T05:01:46.769Z,6.44
2018-05-04T05:02:46.536Z,6.45
2018-05-04T05:03:46.489Z,6.45
2018-05-04T05:04:46.512Z,6.48
2018-05-04T05:05:46.522Z,6.48
2018-05-04T05:06:46.480Z,6.5
2018-05-04T05:07:46.529Z,6.46
2018-05-04T05:08:46.491Z,6.46
2018-05-04T05:09:46.533Z,6.46
2018-05-04T05:10:46.515Z,6.43
2018-05-04T05:11:46.517Z,6.44
2018-05-04T05:12:46.646Z,6.4
2018-05-04T05:13:46.590Z,6.46
2018-05-04T05:14:46.522Z,6.44
2018-05-04T05:15:46.524Z,6.48
2018-05-04T05:16:46.514Z,6.44
2018-05-04T05:17:46.522Z,6.47
2018-05-04T05:18:46.519Z,6.43
2018-05-04T05:19:46.535Z,6.4
2018-05-04T05:20:46.541Z,6.42
2018-05-04T05:21:46.926Z,6.44
2018-05-04T05:22:46.714Z,6.42
2018-05-04T05:23:47.259Z,6.47
2018-05-04T05:24:46.528Z,6.48
2018-05-04T05:25:46.544Z,6.45
2018-05-04T05:26:47.397Z,6.46
2018-05-04T05:27:46.529Z,6.57
2018-05-04T05:28:46.505Z,6.59
2018-05-04T05:29:46.503Z,6.47
2018-05-04T05:30:46.510Z,6.47
2018-05-04T05:31:46.495Z,6.47
2018-05-04T05:32:46.518Z,6.58
2018-05-04T05:33:46.551Z,6.57
2018-05-04T05:34:46.662Z,6.48
2018-05-04T05:35:46.540Z,6.55
2018-05-04T05:36:46.979Z,6.59
2018-05-04T05:37:46.525Z,6.47
2018-05-04T05:38:46.984Z,6.45
2018-05-04T05:39:46.525Z,6.47
2018-05-04T05:40:46.537Z,6.45
2018-05-04T05:41:46.539Z,6.47
2018-05-04T05:42:46.613Z,6.46
2018-05-04T05:43:46.872Z,6.47
2018-05-04T05:44:46.668Z,6.5
2018-05-04T05:45:46.591Z,6.53
2018-05-04T05:46:46.660Z,6.54
2018-05-04T05:47:46.533Z,6.49
2018-05-04T05:48:46.520Z,6.48
2018-05-04T05:49:46.518Z,6.48
2018-05-04T05:50:46.537Z,6.48
2018-05-04T05:51:46.815Z,6.5
2018-05-04T05:52:46.519Z,6.49
2018-05-04T05:53:46.693Z,6.49
2018-05-04T05:54:46.524Z,6.5
2018-05-04T05:55:46.544Z,6.49
2018-05-04T05:56:46.532Z,6.5
2018-05-04T05:57:47.700Z,6.49
2018-05-04T05:58:46.567Z,6.54
2018-05-04T05:59:46.543Z,6.5
2018-05-04T06:00:47.018Z,6.57
2018-05-04T06:01:46.548Z,6.56
2018-05-04T06:02:46.547Z,6.56
2018-05-04T06:03:46.552Z,6.57
2018-05-04T06:04:47.056Z,6.58
2018-05-04T06:05:46.566Z,6.63
2018-05-04T06:06:46.549Z,6.66
2018-05-04T06:07:46.552Z,6.63
2018-05-04T06:08:46.563Z,6.67
2018-05-04T06:09:46.531Z,6.68
2018-05-04T06:10:46.522Z,6.68
2018-05-04T06:11:46.566Z,6.6
2018-05-04T06:12:46.533Z,6.63
2018-05-04T06:13:46.539Z,6.62
2018-05-04T06:14:46.516Z,6.66
2018-05-04T06:15:46.706Z,6.58
2018-05-04T06:16:46.512Z,6.62
2018-05-04T06:17:46.513Z,6.66
2018-05-04T06:18:46.572Z,6.67
2018-05-04T06:19:46.540Z,6.61
2018-05-04T06:20:46.535Z,6.62
2018-05-04T06:21:46.719Z,6.62
2018-05-04T06:22:46.556Z,6.6
2018-05-04T06:23:46.546Z,6.69
2018-05-04T06:24:46.528Z,6.7
2018-05-04T06:25:47.141Z,6.72
2018-05-04T06:26:46.511Z,6.74
2018-05-04T06:27:46.578Z,6.76
2018-05-04T06:28:47.548Z,6.79
2018-05-04T06:29:46.534Z,6.59
2018-05-04T06:30:46.550Z,6.7
2018-05-04T06:31:46.652Z,6.66
2018-05-04T06:32:46.649Z,6.74
2018-05-04T06:33:46.982Z,6.76
2018-05-04T06:34:46.529Z,6.69
2018-05-04T06:35:46.536Z,6.72
2018-05-04T06:36:46.602Z,6.76
2018-05-04T06:37:46.745Z,6.78
2018-05-04T06:38:47.097Z,6.8
2018-05-04T06:39:47.551Z,6.72
2018-05-04T06:40:46.584Z,6.78
2018-05-04T06:41:46.531Z,6.77
2018-05-04T06:42:46.548Z,6.79
2018-05-04T06:43:46.547Z,6.77
2018-05-04T06:44:46.563Z,6.79
2018-05-04T06:45:47.277Z,6.77
2018-05-04T06:46:46.530Z,6.74
2018-05-04T06:47:46.526Z,6.72
2018-05-04T06:48:47.738Z,6.7
2018-05-04T06:49:46.560Z,6.71
2018-05-04T06:50:46.540Z,6.74
2018-05-04T06:51:46.537Z,6.77
2018-05-04T06:52:46.540Z,6.76
2018-05-04T06:53:46.529Z,6.84
2018-05-04T06:54:46.610Z,6.76
2018-05-04T06:55:46.834Z,6.76
2018-05-04T06:56:46.548Z,6.73
2018-05-04T06:57:46.568Z,6.75
2018-05-04T06:58:46.567Z,6.82
2018-05-04T07:00:03.284Z,6.81
2018-05-04T07:00:47.619Z,6.8
2018-05-04T07:01:46.539Z,6.83
2018-05-04T07:02:47.609Z,6.89
2018-05-04T07:03:46.645Z,6.93
2018-05-04T07:04:46.531Z,6.82
2018-05-04T07:05:46.623Z,6.81
2018-05-04T07:06:46.536Z,6.76
2018-05-04T07:07:46.542Z,6.83
2018-05-04T07:08:46.584Z,6.91
2018-05-04T07:09:49.374Z,6.91
2018-05-04T07:10:52.309Z,6.87
2018-05-04T07:11:46.577Z,6.76
2018-05-04T07:12:46.543Z,6.88
2018-05-04T07:13:46.543Z,6.81
2018-05-04T07:14:48.096Z,6.87
2018-05-04T07:15:46.615Z,6.84
2018-05-04T07:16:46.535Z,6.89
2018-05-04T07:17:46.547Z,6.85
2018-05-04T07:18:46.528Z,6.9
2018-05-04T07:19:47.922Z,6.91
2018-05-04T07:20:46.548Z,6.99
2018-05-04T07:21:46.565Z,7.02
2018-05-04T07:22:47.043Z,6.96
2018-05-04T07:23:46.615Z,6.96
2018-05-04T07:24:46.575Z,7.03
2018-05-04T07:25:46.579Z,6.94
2018-05-04T07:26:46.637Z,6.88
2018-05-04T07:27:46.624Z,7.02
2018-05-04T07:28:47.210Z,7.03
2018-05-04T07:29:46.557Z,7.01
2018-05-04T07:30:46.558Z,7.02
2018-05-04T07:31:46.592Z,7.04
2018-05-04T07:32:46.553Z,7.01
2018-05-04T07:33:46.546Z,7.03
2018-05-04T07:34:47.159Z,7.07
2018-05-04T07:35:46.579Z,7.09
2018-05-04T07:36:46.717Z,7.1
2018-05-04T07:37:46.731Z,7.16
2018-05-04T07:38:46.558Z,7.16
2018-05-04T07:39:47.071Z,7.17
2018-05-04T07:40:46.568Z,7.17
2018-05-04T07:41:46.645Z,7.24
2018-05-04T07:42:46.968Z,7.1
2018-05-04T07:43:46.892Z,7.23
2018-05-04T07:44:46.645Z,7.19
2018-05-04T07:45:46.844Z,7.17
2018-05-04T07:46:46.879Z,7.19
2018-05-04T07:47:46.680Z,7.24
2018-05-04T07:48:47.419Z,7.18
2018-05-04T07:49:46.688Z,7.28
2018-05-04T07:50:46.579Z,7.26
2018-05-04T07:51:46.539Z,7.19
2018-05-04T07:52:49.133Z,7.24
2018-05-04T07:53:46.827Z,7.12
2018-05-04T07:54:46.835Z,7.2
2018-05-04T07:55:46.607Z,7.14
2018-05-04T07:56:46.644Z,7.19
2018-05-04T07:57:46.673Z,7.25
2018-05-04T07:58:46.780Z,7.25
2018-05-04T07:59:46.658Z,7.37
2018-05-04T08:00:46.674Z,7.28
2018-05-04T08:01:46.613Z,7.24
2018-05-04T08:02:46.687Z,7.31
2018-05-04T08:03:46.570Z,7.31
2018-05-04T08:04:46.578Z,7.27
2018-05-04T08:05:46.576Z,7.35
2018-05-04T08:06:46.706Z,7.4
2018-05-04T08:07:46.614Z,7.28
2018-05-04T08:08:46.612Z,7.32
2018-05-04T08:09:46.572Z,7.39
2018-05-04T08:10:46.607Z,7.33
2018-05-04T08:11:46.604Z,7.43
2018-05-04T08:12:46.566Z,7.43
2018-05-04T08:13:46.963Z,7.38
2018-05-04T08:14:46.602Z,7.39
2018-05-04T08:15:46.666Z,7.42
2018-05-04T08:16:46.574Z,7.38
2018-05-04T08:17:46.621Z,7.3
2018-05-04T08:18:46.571Z,7.35
2018-05-04T08:19:46.624Z,7.34
2018-05-04T08:20:46.674Z,7.33
2018-05-04T08:21:46.581Z,7.36
2018-05-04T08:22:46.600Z,7.49
2018-05-04T08:23:46.714Z,7.42
2018-05-04T08:24:46.569Z,7.42
2018-05-04T08:25:46.632Z,7.48
2018-05-04T08:26:46.571Z,7.46
2018-05-04T08:27:46.751Z,7.39
2018-05-04T08:28:46.626Z,7.45
2018-05-04T08:29:46.973Z,7.44
2018-05-04T08:30:46.585Z,7.49
2018-05-04T08:31:46.614Z,7.55
2018-05-04T08:32:46.713Z,7.68
2018-05-04T08:33:46.563Z,7.65
2018-05-04T08:34:46.908Z,7.48
2018-05-04T08:35:46.631Z,7.59
2018-05-04T08:36:46.616Z,7.49
2018-05-04T08:37:46.612Z,7.58
2018-05-04T08:38:46.610Z,7.57
2018-05-04T08:39:46.776Z,7.58
2018-05-04T08:40:47.552Z,7.46
2018-05-04T08:41:46.601Z,7.56
2018-05-04T08:42:46.749Z,7.55
2018-05-04T08:43:46.594Z,7.71
2018-05-04T08:44:46.638Z,7.55
2018-05-04T08:45:46.600Z,7.61
2018-05-04T08:46:47.052Z,7.72
2018-05-04T08:47:46.581Z,7.74
2018-05-04T08:48:46.622Z,7.69
2018-05-04T08:49:46.625Z,7.65
2018-05-04T08:50:47.661Z,7.75
2018-05-04T08:51:46.622Z,7.71
2018-05-04T08:52:46.585Z,7.72
2018-05-04T08:53:46.650Z,7.68
2018-05-04T08:54:46.737Z,7.59
2018-05-04T08:55:46.585Z,7.65
2018-05-04T08:56:46.759Z,7.73
2018-05-04T08:57:46.747Z,7.82
2018-05-04T08:58:46.623Z,7.72
2018-05-04T08:59:47.158Z,7.73
2018-05-04T09:00:47.007Z,7.7
2018-05-04T09:01:46.714Z,7.89
2018-05-04T09:02:46.888Z,7.91
2018-05-04T09:03:46.720Z,7.79
2018-05-04T09:04:46.622Z,7.82
2018-05-04T09:05:46.642Z,7.83
2018-05-04T09:06:46.638Z,7.88
2018-05-04T09:07:46.684Z,7.83
2018-05-04T09:08:46.620Z,7.95
2018-05-04T09:09:46.623Z,7.78
2018-05-04T09:10:46.615Z,7.89
2018-05-04T09:11:46.704Z,7.99
2018-05-04T09:12:46.809Z,7.9
2018-05-04T09:13:46.606Z,7.87
2018-05-04T09:14:46.788Z,7.89
2018-05-04T09:15:46.650Z,7.93
2018-05-04T09:16:46.645Z,7.85
2018-05-04T09:17:46.610Z,7.94
2018-05-04T09:18:46.690Z,7.9
2018-05-04T09:19:47.151Z,7.86
2018-05-04T09:20:46.637Z,7.95
2018-05-04T09:21:46.642Z,7.92
2018-05-04T09:22:46.661Z,8.01
2018-05-04T09:23:46.613Z,7.96
2018-05-04T09:24:46.650Z,7.88
2018-05-04T09:25:46.597Z,7.97
2018-05-04T09:26:46.598Z,8
2018-05-04T09:27:46.626Z,7.92
2018-05-04T09:28:46.677Z,8.09
2018-05-04T09:29:46.636Z,8.06
2018-05-04T09:30:47.246Z,8
2018-05-04T09:31:46.628Z,8.01
2018-05-04T09:32:46.734Z,7.99
2018-05-04T09:33:46.998Z,8.03
2018-05-04T09:34:46.671Z,8.1
2018-05-04T09:35:46.604Z,8.12
2018-05-04T09:36:46.601Z,8.11
2018-05-04T09:37:46.656Z,8.18
2018-05-04T09:38:46.638Z,8.27
2018-05-04T09:39:46.651Z,8.23
2018-05-04T09:40:46.643Z,8.29
2018-05-04T09:41:46.640Z,8.19
2018-05-04T09:42:46.697Z,8.16
2018-05-04T09:43:47.229Z,8.3
2018-05-04T09:44:46.748Z,8.18
2018-05-04T09:45:46.758Z,8.18
2018-05-04T09:46:46.695Z,8.32
2018-05-04T09:47:46.645Z,8.38
2018-05-04T09:48:46.622Z,8.25
2018-05-04T09:49:47.137Z,8.21
2018-05-04T09:50:46.625Z,8.24
2018-05-04T09:51:46.650Z,8.26
2018-05-04T09:52:46.827Z,8.21
2018-05-04T09:53:46.614Z,8.27
2018-05-04T09:54:46.651Z,8.27
2018-05-04T09:55:46.670Z,8.28
2018-05-04T09:56:46.762Z,8.27
2018-05-04T09:57:46.683Z,8.25
2018-05-04T09:58:46.663Z,8.34
2018-05-04T09:59:46.652Z,8.35
2018-05-04T10:00:46.674Z,8.47
2018-05-04T10:01:46.660Z,8.17
2018-05-04T10:02:46.642Z,8.17
2018-05-04T10:03:46.686Z,8.18
2018-05-04T10:04:46.628Z,8.32
2018-05-04T10:05:46.631Z,8.35
2018-05-04T10:06:46.686Z,8.41
2018-05-04T10:07:46.676Z,8.35
2018-05-04T10:08:46.712Z,8.32
2018-05-04T10:09:46.674Z,8.32
2018-05-04T10:10:46.642Z,8.2
2018-05-04T10:11:46.724Z,8.23
2018-05-04T10:12:46.764Z,8.3
2018-05-04T10:13:46.680Z,8.46
2018-05-04T10:14:46.734Z,8.31
2018-05-04T10:15:46.673Z,8.4
2018-05-04T10:16:46.678Z,8.55
2018-05-04T10:17:47.208Z,8.44
2018-05-04T10:18:47.252Z,8.42
2018-05-04T10:19:46.649Z,8.35
2018-05-04T10:20:46.678Z,8.37
2018-05-04T10:21:46.672Z,8.39
2018-05-04T10:22:46.932Z,8.31
2018-05-04T10:23:46.655Z,8.36
2018-05-04T10:24:46.661Z,8.44
2018-05-04T10:25:46.810Z,8.53
2018-05-04T10:26:46.704Z,8.45
2018-05-04T10:27:46.668Z,8.44
2018-05-04T10:28:46.657Z,8.34
2018-05-04T10:29:46.787Z,8.39
2018-05-04T10:30:46.703Z,8.52
2018-05-04T10:31:46.661Z,8.34
2018-05-04T10:32:46.652Z,8.36
2018-05-04T10:33:46.658Z,8.24
2018-05-04T10:34:46.780Z,8.34
2018-05-04T10:35:46.678Z,8.4
2018-05-04T10:36:46.650Z,8.4
2018-05-04T10:37:46.739Z,8.3
2018-05-04T10:38:47.377Z,8.28
2018-05-04T10:39:46.705Z,8.38
2018-05-04T10:40:46.675Z,8.54
2018-05-04T10:41:46.688Z,8.36
2018-05-04T10:42:46.690Z,8.36
2018-05-04T10:43:46.652Z,8.39
2018-05-04T10:44:46.711Z,8.36
2018-05-04T10:45:46.706Z,8.48
2018-05-04T10:46:46.662Z,8.55
2018-05-04T10:47:46.803Z,8.4
2018-05-04T10:48:46.702Z,8.39
2018-05-04T10:49:46.694Z,8.58
2018-05-04T10:50:46.806Z,8.4
2018-05-04T10:51:46.797Z,8.49
2018-05-04T10:52:46.828Z,8.42
2018-05-04T10:53:46.655Z,8.41
2018-05-04T10:54:46.660Z,8.44
2018-05-04T10:55:46.695Z,8.43
2018-05-04T10:56:46.844Z,8.35
2018-05-04T10:57:46.852Z,8.4
2018-05-04T10:58:46.705Z,8.44
2018-05-04T10:59:46.677Z,8.37
2018-05-04T11:00:46.803Z,8.42
2018-05-04T11:01:46.774Z,8.32
2018-05-04T11:02:46.679Z,8.33
2018-05-04T11:03:46.697Z,8.38
2018-05-04T11:04:47.270Z,8.37
2018-05-04T11:05:46.738Z,8.4
2018-05-04T11:06:46.689Z,8.35
2018-05-04T11:07:46.676Z,8.33
2018-05-04T11:08:46.690Z,8.41
2018-05-04T11:09:47.045Z,8.34
2018-05-04T11:10:46.773Z,8.29
2018-05-04T11:11:46.701Z,8.39
2018-05-04T11:12:46.791Z,8.32
2018-05-04T11:13:46.688Z,8.35
2018-05-04T11:14:47.077Z,8.31
2018-05-04T11:15:46.674Z,8.24
2018-05-04T11:16:46.731Z,8.3
2018-05-04T11:17:46.867Z,8.37
2018-05-04T11:18:46.792Z,8.47
2018-05-04T11:19:46.739Z,8.54
2018-05-04T11:20:46.726Z,8.51
2018-05-04T11:21:46.714Z,8.53
2018-05-04T11:22:46.756Z,8.52
2018-05-04T11:23:46.705Z,8.55
2018-05-04T11:24:46.761Z,8.5
2018-05-04T11:25:46.769Z,8.35
2018-05-04T11:26:46.807Z,8.37
2018-05-04T11:27:46.955Z,8.5
2018-05-04T11:28:46.994Z,8.44
2018-05-04T11:29:46.983Z,8.43
2018-05-04T11:30:47.053Z,8.5
2018-05-04T11:31:46.788Z,8.49
2018-05-04T11:32:46.892Z,8.43
2018-05-04T11:33:47.004Z,8.43
2018-05-04T11:34:47.222Z,8.61
2018-05-04T11:35:46.918Z,8.38
2018-05-04T11:36:47.904Z,8.4
2018-05-04T11:37:46.801Z,8.49
2018-05-04T11:38:47.193Z,8.47
2018-05-04T11:39:46.944Z,8.48
2018-05-04T11:40:46.945Z,8.55
2018-05-04T11:41:46.848Z,8.47
2018-05-04T11:42:46.856Z,8.41
2018-05-04T11:43:46.817Z,8.52
2018-05-04T11:44:47.114Z,8.54
2018-05-04T11:45:47.043Z,8.54
2018-05-04T11:46:46.889Z,8.6
2018-05-04T11:47:46.864Z,8.34
2018-05-04T11:48:46.914Z,8.44
2018-05-04T11:49:48.231Z,8.46
2018-05-04T11:50:47.018Z,8.61
2018-05-04T11:51:46.817Z,8.46
2018-05-04T11:52:47.008Z,8.53
2018-05-04T11:53:46.822Z,8.5
2018-05-04T11:54:46.835Z,8.56
2018-05-04T11:55:46.830Z,8.58
2018-05-04T11:56:46.738Z,8.58
2018-05-04T11:57:46.766Z,8.65
2018-05-04T11:58:46.900Z,8.49
2018-05-04T11:59:46.856Z,8.51
2018-05-04T12:00:46.886Z,8.67
2018-05-04T12:01:46.882Z,8.58
2018-05-04T12:02:46.776Z,8.55
2018-05-04T12:03:46.694Z,8.61
2018-05-04T12:04:46.979Z,8.6
2018-05-04T12:05:46.701Z,8.7
2018-05-04T12:06:47.224Z,8.71
2018-05-04T12:07:48.464Z,8.59
2018-05-04T12:08:46.701Z,8.51
2018-05-04T12:09:46.701Z,8.54
2018-05-04T12:10:47.170Z,8.62
2018-05-04T12:11:46.853Z,8.72
2018-05-04T12:12:46.862Z,8.6
2018-05-04T12:13:46.732Z,8.67
2018-05-04T12:14:46.728Z,8.71
2018-05-04T12:15:46.968Z,8.72
2018-05-04T12:16:46.723Z,8.69
2018-05-04T12:17:46.729Z,8.77
2018-05-04T12:18:46.795Z,8.7
2018-05-04T12:19:46.730Z,8.74
2018-05-04T12:20:46.797Z,8.63
2018-05-04T12:21:46.817Z,8.81
2018-05-04T12:22:47.219Z,8.56
2018-05-04T12:23:46.756Z,8.58
2018-05-04T12:24:46.723Z,8.49
2018-05-04T12:25:47.092Z,8.64
2018-05-04T12:26:46.727Z,8.69
2018-05-04T12:27:46.755Z,8.72
2018-05-04T12:28:46.763Z,8.71
2018-05-04T12:29:46.708Z,8.63
2018-05-04T12:30:46.760Z,8.71
2018-05-04T12:31:47.671Z,8.73
2018-05-04T12:32:46.746Z,8.61
2018-05-04T12:33:46.714Z,8.54
2018-05-04T12:34:46.700Z,8.69
2018-05-04T12:35:46.860Z,8.66
2018-05-04T12:36:46.915Z,8.85
2018-05-04T12:37:46.717Z,8.92
2018-05-04T12:38:46.773Z,8.63
2018-05-04T12:39:46.729Z,8.56
2018-05-04T12:40:46.851Z,8.61
2018-05-04T12:41:46.735Z,8.74
2018-05-04T12:42:46.764Z,8.61
2018-05-04T12:43:46.824Z,8.58
2018-05-04T12:44:46.769Z,8.63
2018-05-04T12:45:46.779Z,8.4
2018-05-04T12:46:46.789Z,8.59
2018-05-04T12:47:46.968Z,8.6
2018-05-04T12:48:47.592Z,8.75
2018-05-04T12:49:46.722Z,8.8
2018-05-04T12:50:46.749Z,8.66
2018-05-04T12:51:46.759Z,8.57
2018-05-04T12:52:46.783Z,8.55
2018-05-04T12:53:47.310Z,8.69
2018-05-04T12:54:46.759Z,8.83
2018-05-04T12:55:46.738Z,8.75
2018-05-04T12:56:46.816Z,8.61
2018-05-04T12:57:46.864Z,8.66
2018-05-04T12:58:46.854Z,8.59
2018-05-04T12:59:46.980Z,8.63
2018-05-04T13:00:46.742Z,8.74
2018-05-04T13:01:46.834Z,8.62
2018-05-04T13:02:46.915Z,8.73
2018-05-04T13:03:46.790Z,8.61
2018-05-04T13:04:46.802Z,8.86
2018-05-04T13:05:46.767Z,8.75
2018-05-04T13:06:46.758Z,8.73
2018-05-04T13:07:46.925Z,8.58
2018-05-04T13:08:46.786Z,8.72
2018-05-04T13:09:46.731Z,8.62
2018-05-04T13:10:46.844Z,8.74
2018-05-04T13:11:46.856Z,8.79
2018-05-04T13:12:46.775Z,8.84
2018-05-04T13:13:46.769Z,8.9
2018-05-04T13:14:46.768Z,8.83
2018-05-04T13:15:46.761Z,8.86
2018-05-04T13:16:46.788Z,8.85
2018-05-04T13:17:46.880Z,8.69
2018-05-04T13:18:46.751Z,8.9
2018-05-04T13:19:46.909Z,8.91
2018-05-04T13:20:46.931Z,8.92
2018-05-04T13:21:46.804Z,8.82